Time;durP1;ratioP1;P1;durP2;ratioP2;P2;SDS_P1;SDS_P2;PMS_P1;PMS_P2;Temp;Humidity;BMP_temperature;BMP_pressure;BME280_temperature;BME280_humidity;BME280_pressure;Samples;Min_cycle;Max_cycle;Signal;HPM_P1;HPM_P2
2023/06/24 00:00:30;;;;;;;0.20;0.20;;;17.50;99.90;;;;;;5049599;28;20498;-79
2023/06/24 00:02:57;;;;;;;0.20;0.20;;;17.50;99.90;;;;;;5032840;28;20067;-79
2023/06/24 00:05:23;;;;;;;0.20;0.20;;;17.50;99.90;;;;;;5029489;28;20108;-79
2023/06/24 00:07:49;;;;;;;0.13;0.13;;;17.50;99.90;;;;;;5019831;28;20564;-79
2023/06/24 00:10:15;;;;;;;0.20;0.20;;;17.40;99.90;;;;;;5049215;28;20095;-79
2023/06/24 00:12:41;;;;;;;0.10;0.10;;;17.40;99.90;;;;;;5035802;28;20379;-78
2023/06/24 00:15:10;;;;;;;0.20;0.20;;;17.30;99.90;;;;;;5025862;28;20037;-78
2023/06/24 00:17:36;;;;;;;0.10;0.10;;;17.30;99.90;;;;;;5025720;28;20106;-79
2023/06/24 00:20:04;;;;;;;0.10;0.10;;;17.30;99.90;;;;;;5026812;28;20628;-79
2023/06/24 00:22:29;;;;;;;0.20;0.20;;;17.20;99.90;;;;;;5031708;28;20497;-78
2023/06/24 00:24:56;;;;;;;0.10;0.10;;;17.20;99.90;;;;;;5033877;28;20044;-79
2023/06/24 00:27:22;;;;;;;0.20;0.20;;;17.20;99.90;;;;;;5030340;28;20090;-79
2023/06/24 00:29:47;;;;;;;0.20;0.20;;;17.20;99.90;;;;;;5028305;28;20049;-79
2023/06/24 00:32:13;;;;;;;0.10;0.10;;;17.20;99.90;;;;;;5049712;28;20060;-79
2023/06/24 00:34:43;;;;;;;0.10;0.10;;;17.20;99.90;;;;;;5031568;28;20043;-79
2023/06/24 00:37:09;;;;;;;0.20;0.20;;;17.10;99.90;;;;;;5049543;28;20041;-79
2023/06/24 00:39:35;;;;;;;0.20;0.20;;;17.10;99.90;;;;;;5027441;28;20578;-79
2023/06/24 00:42:01;;;;;;;0.10;0.10;;;17.10;99.90;;;;;;5044820;28;20041;-79
2023/06/24 00:44:27;;;;;;;0.20;0.20;;;17.00;99.90;;;;;;5031866;28;20439;-79
2023/06/24 00:46:54;;;;;;;0.20;0.20;;;17.00;99.90;;;;;;5033088;28;20124;-79
2023/06/24 00:49:20;;;;;;;0.20;0.20;;;17.00;99.90;;;;;;5031150;28;20049;-79
2023/06/24 00:51:50;;;;;;;0.20;0.20;;;16.90;99.90;;;;;;5033036;28;20056;-79
2023/06/24 00:54:17;;;;;;;0.17;0.17;;;16.90;99.90;;;;;;5050344;28;20505;-79
2023/06/24 00:56:43;;;;;;;0.20;0.20;;;16.90;99.90;;;;;;5029736;28;20131;-79
2023/06/24 00:59:12;;;;;;;0.20;0.20;;;16.90;99.90;;;;;;5049413;28;20041;-78
2023/06/24 01:01:38;;;;;;;0.20;0.20;;;16.90;99.90;;;;;;5032183;28;20575;-79
2023/06/24 01:04:07;;;;;;;0.20;0.20;;;16.90;99.90;;;;;;5048732;28;20128;-79
2023/06/24 01:06:35;;;;;;;0.10;0.10;;;16.90;99.90;;;;;;5049522;28;20055;-79
2023/06/24 01:09:02;;;;;;;0.20;0.20;;;16.90;99.90;;;;;;5049087;28;20483;-79
2023/06/24 01:11:29;;;;;;;0.20;0.20;;;16.90;99.90;;;;;;5031355;28;20044;-79
2023/06/24 01:13:56;;;;;;;0.10;0.10;;;16.90;99.90;;;;;;5031484;28;20128;-80
2023/06/24 01:16:41;;;;;;;0.20;0.20;;;16.90;99.90;;;;;;5031627;28;20522;-79
2023/06/24 01:19:38;;;;;;;0.10;0.10;;;16.90;99.90;;;;;;5049618;28;20136;-79
2023/06/24 01:22:28;;;;;;;0.10;0.10;;;16.90;99.90;;;;;;5048512;28;20084;-79
2023/06/24 01:25:24;;;;;;;0.20;0.20;;;16.90;99.90;;;;;;5047760;28;20086;-79
2023/06/24 01:28:09;;;;;;;0.20;0.20;;;16.90;99.90;;;;;;5049130;28;20085;-78
2023/06/24 01:30:43;;;;;;;0.17;0.17;;;16.90;99.90;;;;;;5027830;28;20040;-78
2023/06/24 01:33:14;;;;;;;0.20;0.20;;;16.90;99.90;;;;;;5026335;28;20094;-79
2023/06/24 01:35:41;;;;;;;;;;;16.90;99.90;;;;;;5049806;28;20072;-78
2023/06/24 01:38:16;;;;;;;0.10;0.10;;;16.90;99.90;;;;;;5047989;28;19928;-77
2023/06/24 01:40:45;;;;;;;0.20;0.20;;;16.90;99.90;;;;;;5026903;28;20025;-78
2023/06/24 01:43:13;;;;;;;0.20;0.20;;;16.90;99.90;;;;;;5046084;28;20037;-78
2023/06/24 01:45:42;;;;;;;0.20;0.20;;;16.90;99.90;;;;;;5046728;28;20416;-78
2023/06/24 01:48:13;;;;;;;0.20;0.20;;;16.90;99.90;;;;;;5031387;28;20374;-79
2023/06/24 01:50:42;;;;;;;;;;;16.90;99.90;;;;;;5046901;28;20084;-78
2023/06/24 01:53:08;;;;;;;0.20;0.20;;;16.90;99.90;;;;;;5029569;28;19921;-79
2023/06/24 01:55:37;;;;;;;0.20;0.20;;;16.90;99.90;;;;;;5030073;28;20049;-78
2023/06/24 01:58:05;;;;;;;0.20;0.20;;;16.90;99.90;;;;;;5027334;28;20124;-78
2023/06/24 02:00:33;;;;;;;0.20;0.20;;;16.80;99.90;;;;;;5031142;28;20064;-79
2023/06/24 02:02:59;;;;;;;0.10;0.10;;;16.80;99.90;;;;;;5030117;28;20493;-78
2023/06/24 02:05:26;;;;;;;0.20;0.20;;;16.80;99.90;;;;;;5027546;28;20041;-78
2023/06/24 02:07:53;;;;;;;0.20;0.20;;;16.80;99.90;;;;;;5028766;28;20403;-79
2023/06/24 02:10:20;;;;;;;0.10;0.10;;;16.80;99.90;;;;;;5027411;28;20069;-79
2023/06/24 02:12:48;;;;;;;0.20;0.20;;;16.80;99.90;;;;;;5043107;28;20091;-79
2023/06/24 02:15:15;;;;;;;0.10;0.10;;;16.80;99.90;;;;;;5049056;28;20037;-79
2023/06/24 02:17:41;;;;;;;0.20;0.20;;;16.80;99.90;;;;;;5028698;28;20076;-79
2023/06/24 02:20:10;;;;;;;0.20;0.20;;;16.80;99.90;;;;;;5029886;28;20046;-79
2023/06/24 02:22:39;;;;;;;0.20;0.20;;;16.80;99.90;;;;;;5048356;28;20045;-78
2023/06/24 02:25:07;;;;;;;0.20;0.20;;;16.80;99.90;;;;;;5028226;28;20045;-79
2023/06/24 02:27:35;;;;;;;0.20;0.20;;;16.80;99.90;;;;;;5025724;28;20041;-79
2023/06/24 02:30:02;;;;;;;0.20;0.20;;;16.70;99.90;;;;;;5026707;28;20045;-78
2023/06/24 02:32:27;;;;;;;0.20;0.20;;;16.70;99.90;;;;;;5056342;28;20079;-79
2023/06/24 02:34:53;;;;;;;0.20;0.20;;;16.70;99.90;;;;;;5048138;28;20053;-79
2023/06/24 02:37:19;;;;;;;0.20;0.20;;;16.70;99.90;;;;;;5047850;28;20079;-79
2023/06/24 02:39:45;;;;;;;0.20;0.20;;;16.70;99.90;;;;;;5045730;28;20045;-79
2023/06/24 02:42:11;;;;;;;0.20;0.20;;;16.70;99.90;;;;;;5048431;28;20499;-79
2023/06/24 02:44:41;;;;;;;0.10;0.10;;;16.70;99.90;;;;;;5050523;28;20036;-79
2023/06/24 02:47:10;;;;;;;0.20;0.20;;;16.70;99.90;;;;;;5034522;28;20121;-79
2023/06/24 02:49:38;;;;;;;0.10;0.10;;;16.70;99.90;;;;;;5051958;28;20073;-80
2023/06/24 02:52:05;;;;;;;0.20;0.20;;;16.70;99.90;;;;;;5049652;28;20052;-79
2023/06/24 02:54:31;;;;;;;0.20;0.20;;;16.70;99.90;;;;;;5042888;28;20046;-79
2023/06/24 02:56:59;;;;;;;0.20;0.20;;;16.70;99.90;;;;;;5063047;28;20120;-79
2023/06/24 02:59:24;;;;;;;0.15;0.15;;;16.70;99.90;;;;;;5052531;28;20049;-79
2023/06/24 03:01:51;;;;;;;0.13;0.13;;;16.70;99.90;;;;;;5046683;28;20049;-79
2023/06/24 03:04:19;;;;;;;0.10;0.10;;;16.70;99.90;;;;;;5039627;28;20079;-79
2023/06/24 03:06:46;;;;;;;0.10;0.10;;;16.70;99.90;;;;;;5050615;28;20083;-79
2023/06/24 03:09:12;;;;;;;0.20;0.20;;;16.60;99.90;;;;;;5050623;28;20396;-79
2023/06/24 03:11:44;;;;;;;0.20;0.20;;;16.60;99.90;;;;;;5050326;28;20033;-79
2023/06/24 03:14:10;;;;;;;0.10;0.10;;;16.60;99.90;;;;;;5050301;28;20059;-79
2023/06/24 03:16:38;;;;;;;0.15;0.15;;;16.60;99.90;;;;;;5039795;28;20042;-79
2023/06/24 03:19:04;;;;;;;0.20;0.20;;;16.70;99.90;;;;;;5031681;28;20054;-79
2023/06/24 03:21:30;;;;;;;0.15;0.15;;;16.70;99.90;;;;;;5039935;28;20029;-79
2023/06/24 03:23:56;;;;;;;0.20;0.20;;;16.70;99.90;;;;;;5051701;28;20041;-79
2023/06/24 03:26:22;;;;;;;0.20;0.20;;;16.70;99.90;;;;;;5045881;28;20477;-79
2023/06/24 03:28:48;;;;;;;0.20;0.20;;;16.70;99.90;;;;;;5051470;28;20049;-79
2023/06/24 03:31:17;;;;;;;0.10;0.10;;;16.70;99.90;;;;;;5050467;28;20057;-79
2023/06/24 03:33:44;;;;;;;0.20;0.20;;;16.60;99.90;;;;;;5044481;28;20063;-79
2023/06/24 03:36:10;;;;;;;0.20;0.20;;;16.60;99.90;;;;;;5051099;28;20118;-80
2023/06/24 03:38:36;;;;;;;0.20;0.20;;;16.50;99.90;;;;;;5027974;28;20063;-79
2023/06/24 03:41:02;;;;;;;0.10;0.10;;;16.50;99.90;;;;;;5032647;28;20471;-79
2023/06/24 03:43:28;;;;;;;0.10;0.10;;;16.50;99.90;;;;;;5048338;28;20051;-79
2023/06/24 03:45:54;;;;;;;0.10;0.10;;;16.50;99.90;;;;;;5032578;28;20087;-79
2023/06/24 03:48:20;;;;;;;0.20;0.20;;;16.50;99.90;;;;;;5032050;28;20049;-79
2023/06/24 03:50:46;;;;;;;0.10;0.10;;;16.40;99.90;;;;;;5048536;28;20485;-80
2023/06/24 03:53:12;;;;;;;0.20;0.20;;;16.40;99.90;;;;;;5048525;28;20142;-79
2023/06/24 03:55:37;;;;;;;0.20;0.20;;;16.40;99.90;;;;;;5025894;28;20049;-79
2023/06/24 03:58:03;;;;;;;0.10;0.10;;;16.40;99.90;;;;;;5031103;28;20059;-79
2023/06/24 04:00:29;;;;;;;0.20;0.20;;;16.30;99.90;;;;;;5051215;28;20465;-79
2023/06/24 04:02:54;;;;;;;0.10;0.10;;;16.30;99.90;;;;;;5051733;28;20484;-78
2023/06/24 04:05:24;;;;;;;0.10;0.10;;;16.20;99.90;;;;;;5049812;28;20041;-78
2023/06/24 04:07:50;;;;;;;0.20;0.20;;;16.20;99.90;;;;;;5030004;28;20123;-78
2023/06/24 04:10:17;;;;;;;0.20;0.20;;;16.20;99.90;;;;;;5025088;28;20478;-78
2023/06/24 04:12:44;;;;;;;0.20;0.20;;;16.20;99.90;;;;;;5028366;28;20132;-78
2023/06/24 04:15:10;;;;;;;0.20;0.20;;;16.20;99.90;;;;;;5033463;28;20079;-79
2023/06/24 04:17:35;;;;;;;0.20;0.20;;;16.20;99.90;;;;;;5031801;28;20469;-78
2023/06/24 04:20:04;;;;;;;0.20;0.20;;;16.20;99.90;;;;;;5049723;28;20072;-79
2023/06/24 04:22:30;;;;;;;0.20;0.20;;;16.10;99.90;;;;;;5032006;28;20067;-79
2023/06/24 04:24:55;;;;;;;0.20;0.20;;;16.20;99.90;;;;;;5033779;28;20366;-79
2023/06/24 04:27:21;;;;;;;0.20;0.20;;;16.10;99.90;;;;;;5047123;28;20491;-79
2023/06/24 04:29:47;;;;;;;0.10;0.10;;;16.10;99.90;;;;;;5029610;28;20033;-78
2023/06/24 04:32:12;;;;;;;0.20;0.20;;;16.10;99.90;;;;;;5048691;28;20057;-79
2023/06/24 04:34:40;;;;;;;0.20;0.20;;;16.10;99.90;;;;;;5032760;28;20060;-79
2023/06/24 04:37:06;;;;;;;0.20;0.20;;;16.20;99.90;;;;;;5048998;28;20049;-79
2023/06/24 04:39:31;;;;;;;0.15;0.15;;;16.10;99.90;;;;;;5031892;28;20037;-79
2023/06/24 04:41:57;;;;;;;0.17;0.17;;;16.20;99.90;;;;;;5027228;28;20037;-78
2023/06/24 04:44:22;;;;;;;0.13;0.13;;;16.20;99.90;;;;;;5038078;28;20049;-79
2023/06/24 04:46:48;;;;;;;0.10;0.10;;;16.20;99.90;;;;;;5046719;28;20153;-79
2023/06/24 04:49:14;;;;;;;0.20;0.20;;;16.30;99.90;;;;;;5051232;28;20056;-79
2023/06/24 04:51:40;;;;;;;0.17;0.17;;;16.30;99.90;;;;;;5049751;28;20044;-79
2023/06/24 04:54:07;;;;;;;0.20;0.20;;;16.30;99.90;;;;;;5048512;28;20051;-78
2023/06/24 04:56:34;;;;;;;0.17;0.17;;;16.30;99.90;;;;;;5031542;28;20045;-78
2023/06/24 04:59:00;;;;;;;0.20;0.20;;;16.40;99.90;;;;;;5032127;28;20079;-79
2023/06/24 05:01:26;;;;;;;0.20;0.20;;;16.40;99.90;;;;;;5028560;28;20044;-78
2023/06/24 05:03:52;;;;;;;0.10;0.10;;;16.50;99.90;;;;;;5032587;28;20052;-79
2023/06/24 05:06:17;;;;;;;0.20;0.20;;;16.50;99.90;;;;;;5028809;28;20036;-78
2023/06/24 05:08:43;;;;;;;0.20;0.20;;;16.50;99.90;;;;;;5044176;28;20472;-79
2023/06/24 05:11:09;;;;;;;0.20;0.20;;;16.50;99.90;;;;;;5046618;28;20074;-79
2023/06/24 05:13:34;;;;;;;0.20;0.20;;;16.50;99.90;;;;;;5047860;28;20542;-79
2023/06/24 05:16:00;;;;;;;0.20;0.20;;;16.50;99.90;;;;;;5026499;28;20045;-79
2023/06/24 05:18:26;;;;;;;0.20;0.20;;;16.60;99.90;;;;;;5027286;28;20040;-78
2023/06/24 05:20:52;;;;;;;0.10;0.10;;;16.60;99.90;;;;;;5030412;28;20045;-79
2023/06/24 05:23:18;;;;;;;0.10;0.10;;;16.60;99.90;;;;;;5047191;28;20118;-78
2023/06/24 05:25:43;;;;;;;0.20;0.20;;;16.70;99.90;;;;;;5030505;28;20091;-79
2023/06/24 05:28:09;;;;;;;0.20;0.20;;;16.70;99.90;;;;;;5027283;28;20041;-79
2023/06/24 05:30:35;;;;;;;0.20;0.20;;;16.80;99.90;;;;;;5024201;28;20087;-78
2023/06/24 05:33:00;;;;;;;0.20;0.20;;;16.80;99.90;;;;;;5029221;28;20400;-79
2023/06/24 05:35:26;;;;;;;0.20;0.20;;;16.90;99.90;;;;;;5027249;28;20488;-78
2023/06/24 05:37:52;;;;;;;0.20;0.20;;;17.00;99.90;;;;;;5045922;28;20045;-79
2023/06/24 05:40:17;;;;;;;0.20;0.20;;;17.00;99.90;;;;;;5031125;28;20053;-79
2023/06/24 05:42:43;;;;;;;0.20;0.20;;;17.10;99.90;;;;;;5021119;28;20582;-78
2023/06/24 05:45:09;;;;;;;0.13;0.13;;;17.10;99.90;;;;;;5030035;28;20037;-78
2023/06/24 05:47:35;;;;;;;0.20;0.20;;;17.20;99.90;;;;;;5022402;28;20124;-80
2023/06/24 05:50:00;;;;;;;0.20;0.20;;;17.30;99.90;;;;;;5048528;28;20196;-80
2023/06/24 05:52:28;;;;;;;0.20;0.20;;;17.30;99.90;;;;;;5030404;28;20041;-79
2023/06/24 05:54:54;;;;;;;0.20;0.20;;;17.40;99.90;;;;;;5051926;28;20108;-80
2023/06/24 05:57:20;;;;;;;0.20;0.20;;;17.50;99.90;;;;;;5030602;28;20695;-80
2023/06/24 05:59:45;;;;;;;0.20;0.20;;;17.60;99.90;;;;;;5031944;28;20159;-80
2023/06/24 06:02:11;;;;;;;0.20;0.20;;;17.70;99.90;;;;;;5029883;28;20057;-80
2023/06/24 06:04:38;;;;;;;0.20;0.20;;;17.80;99.90;;;;;;5048661;28;20039;-80
2023/06/24 06:07:04;;;;;;;0.20;0.20;;;17.90;99.90;;;;;;5026216;28;20045;-81
2023/06/24 06:09:30;;;;;;;0.20;0.20;;;17.90;99.90;;;;;;5040155;28;20079;-80
2023/06/24 06:11:55;;;;;;;0.10;0.10;;;18.10;99.90;;;;;;5028713;28;20052;-80
2023/06/24 06:14:21;;;;;;;0.20;0.20;;;18.20;99.90;;;;;;5028560;28;20485;-80
2023/06/24 06:16:46;;;;;;;0.20;0.20;;;18.30;99.90;;;;;;5043083;28;20041;-79
2023/06/24 06:19:12;;;;;;;0.15;0.15;;;18.40;99.90;;;;;;5032582;28;20061;-78
2023/06/24 06:21:38;;;;;;;0.20;0.20;;;18.60;99.90;;;;;;5049459;28;20047;-77
2023/06/24 06:24:04;;;;;;;0.20;0.20;;;18.70;99.90;;;;;;5032477;28;20053;-80
2023/06/24 06:26:30;;;;;;;0.20;0.20;;;18.80;99.90;;;;;;5031756;28;20451;-80
2023/06/24 06:28:56;;;;;;;0.20;0.20;;;18.90;99.90;;;;;;5038132;28;20084;-80
2023/06/24 06:31:22;;;;;;;0.20;0.20;;;19.00;99.90;;;;;;5053024;28;20053;-80
2023/06/24 06:33:48;;;;;;;0.32;0.22;;;19.10;99.90;;;;;;5029720;28;20526;-81
2023/06/24 06:36:14;;;;;;;0.20;0.20;;;19.20;99.90;;;;;;5035124;28;20029;-81
2023/06/24 06:38:40;;;;;;;0.20;0.20;;;19.30;99.90;;;;;;5033127;28;20528;-81
2023/06/24 06:41:06;;;;;;;0.20;0.20;;;19.40;99.90;;;;;;5052481;28;20068;-81
2023/06/24 06:43:34;;;;;;;0.20;0.20;;;19.40;99.90;;;;;;5032983;28;20095;-81
2023/06/24 06:46:00;;;;;;;0.20;0.20;;;19.50;99.90;;;;;;5051930;28;20105;-81
2023/06/24 06:48:25;;;;;;;0.20;0.20;;;19.60;99.90;;;;;;5032249;28;20490;-79
2023/06/24 06:50:53;;;;;;;0.10;0.10;;;19.70;99.90;;;;;;5031166;28;20041;-80
2023/06/24 06:53:18;;;;;;;0.20;0.20;;;19.80;99.90;;;;;;5041583;28;20052;-81
2023/06/24 06:55:44;;;;;;;0.20;0.20;;;19.90;99.90;;;;;;5050506;28;20041;-80
2023/06/24 06:58:10;;;;;;;0.20;0.20;;;20.00;99.90;;;;;;5050510;28;20048;-80
2023/06/24 07:00:35;;;;;;;0.20;0.20;;;20.00;99.90;;;;;;5034949;28;20048;-81
2023/06/24 07:03:02;;;;;;;0.20;0.20;;;20.10;99.90;;;;;;5034219;28;20334;-81
2023/06/24 07:05:27;;;;;;;0.20;0.20;;;20.20;99.90;;;;;;5034360;28;20103;-81
2023/06/24 07:07:53;;;;;;;0.32;0.32;;;20.30;99.90;;;;;;5051787;28;20452;-80
2023/06/24 07:10:19;;;;;;;0.20;0.20;;;20.30;99.90;;;;;;5035027;28;20068;-81
2023/06/24 07:12:45;;;;;;;0.20;0.20;;;20.40;99.90;;;;;;5031886;28;20440;-80
2023/06/24 07:15:11;;;;;;;0.32;0.32;;;20.50;99.90;;;;;;5052555;28;20469;-81
2023/06/24 07:17:37;;;;;;;0.20;0.20;;;20.60;99.90;;;;;;5034716;28;20041;-80
2023/06/24 07:20:03;;;;;;;1.20;0.28;;;20.60;99.90;;;;;;5029965;28;20511;-80
2023/06/24 07:22:30;;;;;;;0.15;0.15;;;20.70;99.90;;;;;;5045348;28;20374;-79
2023/06/24 07:24:56;;;;;;;0.20;0.20;;;20.70;99.90;;;;;;5046816;28;20060;-80
2023/06/24 07:27:22;;;;;;;0.20;0.20;;;20.80;99.90;;;;;;5030343;28;20118;-79
2023/06/24 07:29:48;;;;;;;0.20;0.20;;;20.90;99.90;;;;;;5050497;28;20078;-80
2023/06/24 07:32:13;;;;;;;0.20;0.20;;;20.90;99.90;;;;;;5019452;28;20558;-80
2023/06/24 07:34:39;;;;;;;0.20;0.20;;;21.00;99.90;;;;;;5032711;28;20567;-80
2023/06/24 07:37:05;;;;;;;0.20;0.20;;;21.00;99.90;;;;;;5028126;28;20087;-79
2023/06/24 07:39:30;;;;;;;0.20;0.20;;;21.10;99.90;;;;;;5008827;28;20497;-80
2023/06/24 07:41:56;;;;;;;0.20;0.20;;;21.10;99.90;;;;;;5012926;28;20132;-80
2023/06/24 07:44:22;;;;;;;0.20;0.20;;;21.20;99.90;;;;;;5012914;28;20041;-79
2023/06/24 07:46:48;;;;;;;0.20;0.20;;;21.30;99.90;;;;;;5024290;28;20545;-80
2023/06/24 07:49:14;;;;;;;0.20;0.20;;;21.40;99.90;;;;;;5023382;28;20081;-79
2023/06/24 07:51:40;;;;;;;0.20;0.20;;;21.40;99.90;;;;;;4994893;28;20081;-80
2023/06/24 07:54:05;;;;;;;0.20;0.20;;;21.50;99.90;;;;;;5029147;28;20049;-79
2023/06/24 07:56:31;;;;;;;0.20;0.20;;;21.60;99.90;;;;;;5031398;28;20466;-79
2023/06/24 07:58:57;;;;;;;1.13;0.43;;;21.70;99.90;;;;;;5028922;28;20053;-79
2023/06/24 08:01:22;;;;;;;0.28;0.28;;;21.80;99.90;;;;;;5030879;28;20045;-81
2023/06/24 08:03:48;;;;;;;0.20;0.20;;;21.90;99.90;;;;;;5012658;28;20107;-80
2023/06/24 08:06:14;;;;;;;0.20;0.20;;;22.00;99.90;;;;;;5011375;28;20041;-79
2023/06/24 08:08:39;;;;;;;0.20;0.20;;;22.10;99.90;;;;;;5027289;28;20033;-76
2023/06/24 08:11:05;;;;;;;1.48;0.50;;;22.10;99.90;;;;;;5007659;28;20429;-76
2023/06/24 08:13:31;;;;;;;0.20;0.20;;;22.20;99.90;;;;;;5011238;28;20103;-77
2023/06/24 08:15:57;;;;;;;0.20;0.20;;;22.30;99.90;;;;;;5011219;28;20037;-77
2023/06/24 08:18:22;;;;;;;0.17;0.17;;;22.40;99.90;;;;;;4997120;28;20053;-76
2023/06/24 08:20:48;;;;;;;0.20;0.20;;;22.40;99.90;;;;;;5007171;28;20498;-77
2023/06/24 08:23:14;;;;;;;0.20;0.20;;;22.50;99.90;;;;;;5011640;28;20050;-77
2023/06/24 08:25:39;;;;;;;0.20;0.20;;;22.50;99.90;;;;;;5025742;28;20064;-76
2023/06/24 08:28:05;;;;;;;0.20;0.20;;;22.60;99.90;;;;;;5026388;28;20075;-81
2023/06/24 08:30:31;;;;;;;0.20;0.20;;;22.60;99.90;;;;;;5028267;28;20120;-80
2023/06/24 08:32:57;;;;;;;0.20;0.20;;;22.70;99.90;;;;;;5032414;28;20049;-81
2023/06/24 08:35:23;;;;;;;0.20;0.20;;;22.70;99.90;;;;;;5026004;28;20055;-80
2023/06/24 08:37:48;;;;;;;0.20;0.20;;;22.70;99.90;;;;;;5046262;28;20072;-80
2023/06/24 08:40:14;;;;;;;0.20;0.20;;;22.80;99.90;;;;;;5027615;28;20477;-80
2023/06/24 08:42:40;;;;;;;0.20;0.20;;;22.80;99.90;;;;;;5031816;28;20103;-80
2023/06/24 08:45:06;;;;;;;0.20;0.20;;;22.80;99.90;;;;;;5049120;28;20064;-81
2023/06/24 08:47:33;;;;;;;0.20;0.20;;;22.90;99.90;;;;;;5048125;28;20060;-80
2023/06/24 08:50:10;;;;;;;0.20;0.20;;;22.90;99.90;;;;;;5047382;28;20132;-81
2023/06/24 08:52:38;;;;;;;0.30;0.30;;;23.00;99.90;;;;;;5042521;28;20112;-80
2023/06/24 08:55:06;;;;;;;0.20;0.20;;;23.10;99.90;;;;;;5028838;28;20112;-80
2023/06/24 08:57:31;;;;;;;0.20;0.20;;;23.20;99.90;;;;;;5047713;28;20055;-80
2023/06/24 08:59:57;;;;;;;0.20;0.20;;;23.20;99.90;;;;;;5032204;28;20041;-79
2023/06/24 09:02:23;;;;;;;0.20;0.20;;;23.20;99.90;;;;;;5027156;28;20076;-80
2023/06/24 09:04:50;;;;;;;0.20;0.20;;;23.30;99.90;;;;;;5035689;28;20066;-80
2023/06/24 09:07:27;;;;;;;0.20;0.20;;;23.40;99.70;;;;;;5046065;28;21871;-80
2023/06/24 09:09:52;;;;;;;0.20;0.20;;;23.40;99.90;;;;;;5045424;28;20076;-79
2023/06/24 09:12:18;;;;;;;0.20;0.20;;;23.60;99.60;;;;;;5045459;28;20583;-79
2023/06/24 09:14:48;;;;;;;0.20;0.20;;;23.60;99.40;;;;;;5030505;28;20045;-80
2023/06/24 09:17:14;;;;;;;0.20;0.20;;;23.70;99.30;;;;;;5026524;28;20045;-80
2023/06/24 09:19:41;;;;;;;0.20;0.20;;;23.70;99.00;;;;;;5050109;28;20048;-80
2023/06/24 09:22:09;;;;;;;0.20;0.20;;;23.80;99.00;;;;;;5030972;28;20045;-81
2023/06/24 09:24:36;;;;;;;0.20;0.20;;;23.90;98.80;;;;;;5047396;28;20473;-81
2023/06/24 09:27:02;;;;;;;0.20;0.20;;;24.00;99.00;;;;;;5041170;28;20785;-81
2023/06/24 09:29:32;;;;;;;0.40;0.40;;;24.00;98.20;;;;;;5042275;28;20123;-80
2023/06/24 09:31:59;;;;;;;0.20;0.20;;;24.10;98.20;;;;;;5032492;28;20049;-79
2023/06/24 09:34:26;;;;;;;0.20;0.20;;;24.20;98.40;;;;;;5045625;28;20443;-79
2023/06/24 09:36:53;;;;;;;0.20;0.20;;;24.20;98.20;;;;;;5047743;28;20129;-80
2023/06/24 09:39:30;;;;;;;0.20;0.20;;;24.20;97.90;;;;;;5045583;28;20057;-79
2023/06/24 09:42:02;;;;;;;0.20;0.20;;;24.30;97.70;;;;;;5046710;28;20036;-80
2023/06/24 09:44:28;;;;;;;0.20;0.20;;;24.20;97.80;;;;;;5049456;28;20318;-80
2023/06/24 09:46:56;;;;;;;0.30;0.30;;;24.20;97.70;;;;;;5040949;28;20045;-80
2023/06/24 09:49:22;;;;;;;0.20;0.20;;;24.20;97.60;;;;;;5043741;28;20037;-80
2023/06/24 09:51:50;;;;;;;0.20;0.20;;;24.20;97.60;;;;;;5054335;28;20045;-79
2023/06/24 09:54:16;;;;;;;0.20;0.20;;;24.20;97.50;;;;;;5049863;28;20099;-79
2023/06/24 09:56:49;;;;;;;0.20;0.20;;;24.20;97.80;;;;;;5047032;28;20056;-80
2023/06/24 09:59:17;;;;;;;0.20;0.20;;;24.20;97.80;;;;;;5041519;28;20045;-81
2023/06/24 10:01:44;;;;;;;0.20;0.20;;;24.30;97.70;;;;;;5045544;28;20049;-80
2023/06/24 10:04:16;;;;;;;0.20;0.20;;;24.30;97.40;;;;;;5045319;28;20071;-80
2023/06/24 10:06:42;;;;;;;0.20;0.20;;;24.40;97.10;;;;;;5047730;28;20102;-80
2023/06/24 10:09:08;;;;;;;0.20;0.20;;;24.40;97.20;;;;;;5048786;28;20048;-80
2023/06/24 10:11:34;;;;;;;0.20;0.20;;;24.50;97.10;;;;;;5050066;28;20033;-83
2023/06/24 10:14:00;;;;;;;0.20;0.20;;;24.60;97.30;;;;;;5048533;28;20052;-81
2023/06/24 10:16:26;;;;;;;0.20;0.20;;;24.70;97.30;;;;;;5044896;28;20041;-80
2023/06/24 10:18:52;;;;;;;0.20;0.20;;;24.70;97.00;;;;;;5045195;28;20048;-82
2023/06/24 10:21:17;;;;;;;0.20;0.20;;;24.70;96.60;;;;;;5049398;28;20041;-80
2023/06/24 10:23:49;;;;;;;0.20;0.20;;;24.80;96.30;;;;;;5044883;28;20409;-80
2023/06/24 10:26:28;;;;;;;0.20;0.20;;;24.80;96.10;;;;;;5048036;28;20088;-80
2023/06/24 10:29:06;;;;;;;0.20;0.20;;;24.80;95.90;;;;;;5043394;28;20114;-80
2023/06/24 10:31:55;;;;;;;0.20;0.20;;;24.90;96.30;;;;;;5061320;28;20069;-80
2023/06/24 10:34:37;;;;;;;0.20;0.20;;;25.00;96.30;;;;;;5049194;28;20416;-80
2023/06/24 10:37:14;;;;;;;0.20;0.20;;;25.00;96.20;;;;;;5046065;28;20574;-80
2023/06/24 10:39:46;;;;;;;0.20;0.20;;;25.10;96.00;;;;;;5047628;28;20076;-81
2023/06/24 10:42:28;;;;;;;0.20;0.20;;;25.20;95.70;;;;;;5047568;28;20388;-81
2023/06/24 10:45:13;;;;;;;0.20;0.20;;;25.30;95.50;;;;;;5049207;28;20099;-80
2023/06/24 10:47:39;;;;;;;0.20;0.20;;;25.50;95.20;;;;;;5042308;28;20034;-81
2023/06/24 10:50:05;;;;;;;0.20;0.20;;;25.50;94.90;;;;;;5046203;28;20048;-81
2023/06/24 10:52:32;;;;;;;0.20;0.20;;;25.60;95.00;;;;;;5046942;28;20389;-81
2023/06/24 10:54:58;;;;;;;0.20;0.20;;;25.60;95.00;;;;;;5063020;28;20464;-80
2023/06/24 10:57:25;;;;;;;0.20;0.20;;;25.60;94.90;;;;;;5048178;28;20045;-82
2023/06/24 10:59:53;;;;;;;0.20;0.20;;;25.60;94.90;;;;;;5047393;28;20485;-80
2023/06/24 11:02:23;;;;;;;0.20;0.20;;;25.60;94.80;;;;;;5049047;28;20041;-79
2023/06/24 11:04:51;;;;;;;0.20;0.20;;;25.50;95.00;;;;;;5054763;28;20049;-81
2023/06/24 11:07:22;;;;;;;0.20;0.20;;;25.50;95.00;;;;;;5051226;28;20386;-80
2023/06/24 11:09:55;;;;;;;0.20;0.20;;;25.50;95.00;;;;;;5051891;28;20060;-80
2023/06/24 11:12:26;;;;;;;0.20;0.20;;;25.50;95.30;;;;;;5050087;28;20095;-80
2023/06/24 11:14:59;;;;;;;0.20;0.20;;;25.50;95.10;;;;;;5051188;28;20445;-80
2023/06/24 11:17:26;;;;;;;0.20;0.20;;;25.30;95.20;;;;;;5050792;28;20049;-83
2023/06/24 11:19:53;;;;;;;0.20;0.20;;;25.60;95.30;;;;;;5052052;28;20404;-79
2023/06/24 11:22:19;;;;;;;0.20;0.20;;;25.60;95.40;;;;;;5051220;28;20045;-82
2023/06/24 11:24:44;;;;;;;0.20;0.20;;;25.70;95.30;;;;;;5057938;28;20096;-81
2023/06/24 11:27:10;;;;;;;0.20;0.20;;;25.90;95.30;;;;;;5051114;28;20143;-80
2023/06/24 11:29:36;;;;;;;0.20;0.20;;;26.00;94.70;;;;;;5048652;28;20041;-81
2023/06/24 11:32:03;;;;;;;0.20;0.20;;;26.10;94.30;;;;;;5051950;28;20053;-82
2023/06/24 11:34:30;;;;;;;0.20;0.20;;;26.10;94.20;;;;;;5034618;28;20385;-81
2023/06/24 11:36:55;;;;;;;0.20;0.20;;;26.20;94.40;;;;;;5051505;28;20041;-81
2023/06/24 11:39:22;;;;;;;0.22;0.22;;;26.20;94.40;;;;;;5033635;28;20049;-80
2023/06/24 11:41:48;;;;;;;0.20;0.20;;;26.20;93.60;;;;;;5058735;28;20047;-81
2023/06/24 11:44:14;;;;;;;0.20;0.20;;;26.10;93.60;;;;;;5072035;28;20139;-80
2023/06/24 11:46:41;;;;;;;0.20;0.20;;;26.10;93.90;;;;;;5031318;28;20137;-81
2023/06/24 11:49:07;;;;;;;0.20;0.20;;;26.10;93.80;;;;;;5013853;28;20527;-81
2023/06/24 11:51:34;;;;;;;0.20;0.20;;;26.10;94.00;;;;;;5014748;28;20378;-81
2023/06/24 11:54:05;;;;;;;0.20;0.20;;;26.00;94.10;;;;;;5031417;28;20480;-80
2023/06/24 11:56:37;;;;;;;0.20;0.20;;;26.00;94.20;;;;;;5040414;28;20044;-79
2023/06/24 11:59:17;;;;;;;0.20;0.20;;;26.00;94.20;;;;;;5050481;28;20454;-80
2023/06/24 12:01:43;;;;;;;0.20;0.20;;;26.00;94.40;;;;;;5053405;28;20049;-80
2023/06/24 12:04:14;;;;;;;0.20;0.20;;;26.10;94.60;;;;;;5050398;28;20045;-81
2023/06/24 12:06:41;;;;;;;0.20;0.20;;;26.10;94.60;;;;;;5033825;28;20159;-81
2023/06/24 12:09:08;;;;;;;0.20;0.20;;;26.20;94.40;;;;;;5051687;28;20098;-81
2023/06/24 12:11:33;;;;;;;0.20;0.20;;;26.20;94.40;;;;;;5033031;28;20545;-80
2023/06/24 12:13:59;;;;;;;0.20;0.20;;;26.20;94.10;;;;;;5031884;28;20127;-79
2023/06/24 12:16:26;;;;;;;0.20;0.20;;;26.30;93.90;;;;;;5033394;28;20094;-80
2023/06/24 12:18:52;;;;;;;0.20;0.20;;;26.30;93.70;;;;;;5032687;28;20105;-80
2023/06/24 12:21:18;;;;;;;0.20;0.20;;;26.30;93.40;;;;;;5034306;28;20047;-80
2023/06/24 12:23:44;;;;;;;0.20;0.20;;;26.30;93.50;;;;;;5050158;28;20041;-80
2023/06/24 12:26:11;;;;;;;0.20;0.20;;;26.40;93.60;;;;;;5033442;28;20053;-79
2023/06/24 12:28:37;;;;;;;0.20;0.20;;;26.40;93.60;;;;;;5028772;28;20042;-80
2023/06/24 12:31:03;;;;;;;0.20;0.20;;;26.50;93.60;;;;;;5031126;28;20080;-80
2023/06/24 12:33:29;;;;;;;0.20;0.20;;;26.60;93.50;;;;;;5020597;28;20048;-81
2023/06/24 12:35:55;;;;;;;0.20;0.20;;;26.60;93.50;;;;;;5053281;28;20071;-80
2023/06/24 12:38:21;;;;;;;0.28;0.28;;;26.80;93.50;;;;;;5035958;28;20489;-81
2023/06/24 12:40:47;;;;;;;0.20;0.20;;;26.80;92.80;;;;;;5033722;28;20044;-80
2023/06/24 12:43:13;;;;;;;0.20;0.20;;;26.90;92.80;;;;;;5048681;28;20067;-80
2023/06/24 12:45:40;;;;;;;0.20;0.20;;;26.90;92.70;;;;;;5050573;28;20037;-81
2023/06/24 12:48:06;;;;;;;0.17;0.17;;;26.80;92.40;;;;;;5033067;28;20052;-81